sensor_id;sensor_type;location;lat;lon;timestamp;P1;durP1;ratioP1;P2;durP2;ratioP2
10661;SDS011;5379;51.034;7.006;2022-09-29T00:00:53;4.50;;;4.10;;
10661;SDS011;5379;51.034;7.006;2022-09-29T00:03:21;5.20;;;4.80;;
10661;SDS011;5379;51.034;7.006;2022-09-29T00:05:48;4.83;;;4.40;;
10661;SDS011;5379;51.034;7.006;2022-09-29T00:08:18;4.50;;;4.20;;
10661;SDS011;5379;51.034;7.006;2022-09-29T00:10:47;5.53;;;4.13;;
10661;SDS011;5379;51.034;7.006;2022-09-29T00:13:14;5.13;;;4.50;;
10661;SDS011;5379;51.034;7.006;2022-09-29T00:15:42;6.83;;;4.37;;
10661;SDS011;5379;51.034;7.006;2022-09-29T00:18:09;4.53;;;4.10;;
10661;SDS011;5379;51.034;7.006;2022-09-29T00:20:37;4.33;;;3.90;;
10661;SDS011;5379;51.034;7.006;2022-09-29T00:23:04;7.63;;;4.63;;
10661;SDS011;5379;51.034;7.006;2022-09-29T00:25:32;6.03;;;4.37;;
10661;SDS011;5379;51.034;7.006;2022-09-29T00:27:59;5.87;;;4.70;;
10661;SDS011;5379;51.034;7.006;2022-09-29T00:30:27;4.47;;;4.10;;
10661;SDS011;5379;51.034;7.006;2022-09-29T00:32:54;4.87;;;4.37;;
10661;SDS011;5379;51.034;7.006;2022-09-29T00:35:21;5.17;;;4.00;;
10661;SDS011;5379;51.034;7.006;2022-09-29T00:37:48;9.10;;;4.67;;
10661;SDS011;5379;51.034;7.006;2022-09-29T00:40:15;4.27;;;3.93;;
10661;SDS011;5379;51.034;7.006;2022-09-29T00:42:43;4.73;;;4.33;;
10661;SDS011;5379;51.034;7.006;2022-09-29T00:45:12;4.77;;;4.37;;
10661;SDS011;5379;51.034;7.006;2022-09-29T00:47:42;4.97;;;4.47;;
10661;SDS011;5379;51.034;7.006;2022-09-29T00:50:13;6.97;;;4.07;;
10661;SDS011;5379;51.034;7.006;2022-09-29T00:52:45;5.17;;;4.13;;
10661;SDS011;5379;51.034;7.006;2022-09-29T00:55:19;4.70;;;4.37;;
10661;SDS011;5379;51.034;7.006;2022-09-29T00:57:53;4.00;;;3.70;;
10661;SDS011;5379;51.034;7.006;2022-09-29T01:00:23;5.00;;;4.17;;
10661;SDS011;5379;51.034;7.006;2022-09-29T01:02:51;4.67;;;4.27;;
10661;SDS011;5379;51.034;7.006;2022-09-29T01:05:23;5.10;;;3.93;;
10661;SDS011;5379;51.034;7.006;2022-09-29T01:07:56;7.83;;;3.93;;
10661;SDS011;5379;51.034;7.006;2022-09-29T01:10:27;5.30;;;4.80;;
10661;SDS011;5379;51.034;7.006;2022-09-29T01:12:56;4.10;;;3.70;;
10661;SDS011;5379;51.034;7.006;2022-09-29T01:15:23;4.13;;;3.73;;
10661;SDS011;5379;51.034;7.006;2022-09-29T01:17:51;9.07;;;4.37;;
10661;SDS011;5379;51.034;7.006;2022-09-29T01:20:18;5.83;;;3.90;;
10661;SDS011;5379;51.034;7.006;2022-09-29T01:22:56;6.00;;;4.70;;
10661;SDS011;5379;51.034;7.006;2022-09-29T01:28:57;4.20;;;3.90;;
10661;SDS011;5379;51.034;7.006;2022-09-29T01:31:41;3.37;;;3.17;;
10661;SDS011;5379;51.034;7.006;2022-09-29T01:34:18;4.83;;;4.37;;
10661;SDS011;5379;51.034;7.006;2022-09-29T01:36:52;4.60;;;4.20;;
10661;SDS011;5379;51.034;7.006;2022-09-29T01:39:29;4.90;;;3.67;;
10661;SDS011;5379;51.034;7.006;2022-09-29T01:42:01;9.47;;;4.13;;
10661;SDS011;5379;51.034;7.006;2022-09-29T01:44:32;4.23;;;3.83;;
10661;SDS011;5379;51.034;7.006;2022-09-29T01:47:08;4.33;;;4.00;;
10661;SDS011;5379;51.034;7.006;2022-09-29T01:49:39;4.47;;;4.07;;
10661;SDS011;5379;51.034;7.006;2022-09-29T01:52:10;3.37;;;3.17;;
10661;SDS011;5379;51.034;7.006;2022-09-29T01:54:42;4.90;;;4.17;;
10661;SDS011;5379;51.034;7.006;2022-09-29T01:57:13;4.47;;;3.67;;
10661;SDS011;5379;51.034;7.006;2022-09-29T01:59:44;4.60;;;4.17;;
10661;SDS011;5379;51.034;7.006;2022-09-29T02:02:17;4.10;;;3.80;;
10661;SDS011;5379;51.034;7.006;2022-09-29T02:04:50;5.70;;;4.10;;
10661;SDS011;5379;51.034;7.006;2022-09-29T02:07:23;5.13;;;4.30;;
10661;SDS011;5379;51.034;7.006;2022-09-29T02:09:57;6.63;;;3.93;;
10661;SDS011;5379;51.034;7.006;2022-09-29T02:12:28;4.70;;;3.90;;
10661;SDS011;5379;51.034;7.006;2022-09-29T02:14:57;4.50;;;4.10;;
10661;SDS011;5379;51.034;7.006;2022-09-29T02:17:30;4.03;;;3.57;;
10661;SDS011;5379;51.034;7.006;2022-09-29T02:20:01;4.40;;;3.77;;
10661;SDS011;5379;51.034;7.006;2022-09-29T02:22:29;5.63;;;3.70;;
10661;SDS011;5379;51.034;7.006;2022-09-29T02:24:57;8.83;;;3.90;;
10661;SDS011;5379;51.034;7.006;2022-09-29T02:27:26;4.47;;;3.77;;
10661;SDS011;5379;51.034;7.006;2022-09-29T02:29:53;4.80;;;4.30;;
10661;SDS011;5379;51.034;7.006;2022-09-29T02:32:22;6.60;;;4.10;;
10661;SDS011;5379;51.034;7.006;2022-09-29T02:34:51;4.07;;;3.70;;
10661;SDS011;5379;51.034;7.006;2022-09-29T02:40:31;4.33;;;3.90;;
10661;SDS011;5379;51.034;7.006;2022-09-29T02:43:11;4.40;;;4.00;;
10661;SDS011;5379;51.034;7.006;2022-09-29T02:46:01;4.20;;;3.63;;
10661;SDS011;5379;51.034;7.006;2022-09-29T02:48:45;4.43;;;3.73;;
10661;SDS011;5379;51.034;7.006;2022-09-29T02:51:32;8.27;;;3.40;;
10661;SDS011;5379;51.034;7.006;2022-09-29T02:54:06;4.27;;;3.97;;
10661;SDS011;5379;51.034;7.006;2022-09-29T02:56:44;4.73;;;4.00;;
10661;SDS011;5379;51.034;7.006;2022-09-29T02:59:20;4.50;;;4.13;;
10661;SDS011;5379;51.034;7.006;2022-09-29T03:01:52;5.67;;;4.57;;
10661;SDS011;5379;51.034;7.006;2022-09-29T03:04:21;4.80;;;4.40;;
10661;SDS011;5379;51.034;7.006;2022-09-29T03:06:51;4.23;;;3.93;;
10661;SDS011;5379;51.034;7.006;2022-09-29T03:09:18;4.90;;;4.43;;
10661;SDS011;5379;51.034;7.006;2022-09-29T03:11:46;5.23;;;4.80;;
10661;SDS011;5379;51.034;7.006;2022-09-29T03:14:13;5.00;;;4.60;;
10661;SDS011;5379;51.034;7.006;2022-09-29T03:16:40;5.53;;;4.93;;
10661;SDS011;5379;51.034;7.006;2022-09-29T03:19:07;5.27;;;4.37;;
10661;SDS011;5379;51.034;7.006;2022-09-29T03:21:34;5.20;;;4.80;;
10661;SDS011;5379;51.034;7.006;2022-09-29T03:24:03;8.57;;;4.67;;
10661;SDS011;5379;51.034;7.006;2022-09-29T03:26:30;5.43;;;4.93;;
10661;SDS011;5379;51.034;7.006;2022-09-29T03:28:57;5.83;;;5.33;;
10661;SDS011;5379;51.034;7.006;2022-09-29T03:31:24;5.63;;;5.03;;
10661;SDS011;5379;51.034;7.006;2022-09-29T03:33:51;5.23;;;4.67;;
10661;SDS011;5379;51.034;7.006;2022-09-29T03:36:18;5.43;;;4.87;;
10661;SDS011;5379;51.034;7.006;2022-09-29T03:38:45;5.47;;;5.07;;
10661;SDS011;5379;51.034;7.006;2022-09-29T03:41:13;6.30;;;5.50;;
10661;SDS011;5379;51.034;7.006;2022-09-29T03:43:40;5.80;;;4.57;;
10661;SDS011;5379;51.034;7.006;2022-09-29T03:46:07;5.37;;;4.97;;
10661;SDS011;5379;51.034;7.006;2022-09-29T03:48:34;7.83;;;5.60;;
10661;SDS011;5379;51.034;7.006;2022-09-29T03:51:01;7.43;;;5.97;;
10661;SDS011;5379;51.034;7.006;2022-09-29T03:53:30;6.53;;;5.53;;
10661;SDS011;5379;51.034;7.006;2022-09-29T03:55:58;5.37;;;4.87;;
10661;SDS011;5379;51.034;7.006;2022-09-29T03:58:27;5.50;;;5.00;;
10661;SDS011;5379;51.034;7.006;2022-09-29T04:00:54;6.17;;;5.60;;
10661;SDS011;5379;51.034;7.006;2022-09-29T04:03:21;6.53;;;5.27;;
10661;SDS011;5379;51.034;7.006;2022-09-29T04:05:48;6.60;;;6.10;;
10661;SDS011;5379;51.034;7.006;2022-09-29T04:08:15;6.73;;;6.13;;
10661;SDS011;5379;51.034;7.006;2022-09-29T04:10:42;6.00;;;5.40;;
10661;SDS011;5379;51.034;7.006;2022-09-29T04:13:12;8.27;;;5.37;;
10661;SDS011;5379;51.034;7.006;2022-09-29T04:15:41;5.97;;;5.20;;
10661;SDS011;5379;51.034;7.006;2022-09-29T04:18:07;6.37;;;5.83;;
10661;SDS011;5379;51.034;7.006;2022-09-29T04:20:36;5.93;;;5.43;;
10661;SDS011;5379;51.034;7.006;2022-09-29T04:23:03;6.63;;;5.80;;
10661;SDS011;5379;51.034;7.006;2022-09-29T04:25:31;6.13;;;5.47;;
10661;SDS011;5379;51.034;7.006;2022-09-29T04:27:58;5.90;;;5.40;;
10661;SDS011;5379;51.034;7.006;2022-09-29T04:30:25;5.80;;;5.30;;
10661;SDS011;5379;51.034;7.006;2022-09-29T04:32:53;7.27;;;5.77;;
10661;SDS011;5379;51.034;7.006;2022-09-29T04:35:20;6.10;;;5.47;;
10661;SDS011;5379;51.034;7.006;2022-09-29T04:37:47;5.67;;;5.20;;
10661;SDS011;5379;51.034;7.006;2022-09-29T04:40:14;6.97;;;6.00;;
10661;SDS011;5379;51.034;7.006;2022-09-29T04:42:41;5.77;;;5.27;;
10661;SDS011;5379;51.034;7.006;2022-09-29T04:45:09;7.33;;;5.90;;
10661;SDS011;5379;51.034;7.006;2022-09-29T04:47:36;6.83;;;6.23;;
10661;SDS011;5379;51.034;7.006;2022-09-29T04:50:05;9.83;;;5.43;;
10661;SDS011;5379;51.034;7.006;2022-09-29T04:52:33;9.43;;;5.27;;
10661;SDS011;5379;51.034;7.006;2022-09-29T04:55:01;11.17;;;6.00;;
10661;SDS011;5379;51.034;7.006;2022-09-29T04:57:28;10.73;;;6.20;;
10661;SDS011;5379;51.034;7.006;2022-09-29T04:59:55;6.03;;;5.53;;
10661;SDS011;5379;51.034;7.006;2022-09-29T05:02:22;6.43;;;5.60;;
10661;SDS011;5379;51.034;7.006;2022-09-29T05:04:49;5.37;;;4.97;;
10661;SDS011;5379;51.034;7.006;2022-09-29T05:07:17;6.97;;;5.27;;
10661;SDS011;5379;51.034;7.006;2022-09-29T05:09:44;5.77;;;5.37;;
10661;SDS011;5379;51.034;7.006;2022-09-29T05:12:12;7.87;;;6.03;;
10661;SDS011;5379;51.034;7.006;2022-09-29T05:14:39;5.83;;;5.33;;
10661;SDS011;5379;51.034;7.006;2022-09-29T05:17:06;7.23;;;6.33;;
10661;SDS011;5379;51.034;7.006;2022-09-29T05:19:34;8.83;;;6.67;;
10661;SDS011;5379;51.034;7.006;2022-09-29T05:22:01;7.77;;;5.80;;
10661;SDS011;5379;51.034;7.006;2022-09-29T05:24:29;5.50;;;4.97;;
10661;SDS011;5379;51.034;7.006;2022-09-29T05:26:56;5.53;;;5.13;;
10661;SDS011;5379;51.034;7.006;2022-09-29T05:29:23;5.07;;;4.67;;
10661;SDS011;5379;51.034;7.006;2022-09-29T05:31:51;5.47;;;4.90;;
10661;SDS011;5379;51.034;7.006;2022-09-29T05:34:18;4.97;;;4.57;;
10661;SDS011;5379;51.034;7.006;2022-09-29T05:36:45;5.23;;;4.80;;
10661;SDS011;5379;51.034;7.006;2022-09-29T05:39:12;5.07;;;4.60;;
10661;SDS011;5379;51.034;7.006;2022-09-29T05:41:40;6.03;;;4.60;;
10661;SDS011;5379;51.034;7.006;2022-09-29T05:44:07;5.60;;;5.10;;
10661;SDS011;5379;51.034;7.006;2022-09-29T05:46:34;5.73;;;5.03;;
10661;SDS011;5379;51.034;7.006;2022-09-29T05:49:01;5.07;;;4.67;;
10661;SDS011;5379;51.034;7.006;2022-09-29T05:51:28;6.30;;;5.00;;
10661;SDS011;5379;51.034;7.006;2022-09-29T05:53:55;5.73;;;5.03;;
10661;SDS011;5379;51.034;7.006;2022-09-29T05:56:23;5.83;;;4.70;;
10661;SDS011;5379;51.034;7.006;2022-09-29T05:58:52;4.90;;;4.57;;
10661;SDS011;5379;51.034;7.006;2022-09-29T06:01:20;4.77;;;4.30;;
10661;SDS011;5379;51.034;7.006;2022-09-29T06:03:49;5.67;;;5.17;;
10661;SDS011;5379;51.034;7.006;2022-09-29T06:06:17;5.23;;;4.77;;
10661;SDS011;5379;51.034;7.006;2022-09-29T06:08:45;5.03;;;4.23;;
10661;SDS011;5379;51.034;7.006;2022-09-29T06:11:13;6.70;;;4.57;;
10661;SDS011;5379;51.034;7.006;2022-09-29T06:13:42;6.17;;;5.53;;
10661;SDS011;5379;51.034;7.006;2022-09-29T06:16:12;6.17;;;5.13;;
10661;SDS011;5379;51.034;7.006;2022-09-29T06:18:44;5.67;;;5.27;;
10661;SDS011;5379;51.034;7.006;2022-09-29T06:21:11;5.03;;;4.53;;
10661;SDS011;5379;51.034;7.006;2022-09-29T06:23:40;13.63;;;4.60;;
10661;SDS011;5379;51.034;7.006;2022-09-29T06:26:07;6.43;;;5.20;;
10661;SDS011;5379;51.034;7.006;2022-09-29T06:28:36;5.23;;;4.87;;
10661;SDS011;5379;51.034;7.006;2022-09-29T06:31:03;5.07;;;4.67;;
10661;SDS011;5379;51.034;7.006;2022-09-29T06:33:33;8.13;;;5.27;;
10661;SDS011;5379;51.034;7.006;2022-09-29T06:36:01;5.97;;;5.47;;
10661;SDS011;5379;51.034;7.006;2022-09-29T06:38:45;5.37;;;4.37;;
10661;SDS011;5379;51.034;7.006;2022-09-29T06:41:13;5.33;;;4.83;;
10661;SDS011;5379;51.034;7.006;2022-09-29T06:43:40;4.63;;;4.23;;
10661;SDS011;5379;51.034;7.006;2022-09-29T06:46:07;7.60;;;4.77;;
10661;SDS011;5379;51.034;7.006;2022-09-29T06:48:36;5.27;;;4.83;;
10661;SDS011;5379;51.034;7.006;2022-09-29T06:51:05;5.27;;;4.70;;
10661;SDS011;5379;51.034;7.006;2022-09-29T06:53:32;4.87;;;4.47;;
10661;SDS011;5379;51.034;7.006;2022-09-29T06:56:00;6.07;;;4.77;;
10661;SDS011;5379;51.034;7.006;2022-09-29T06:58:28;5.20;;;4.80;;
10661;SDS011;5379;51.034;7.006;2022-09-29T07:00:58;5.80;;;4.67;;
10661;SDS011;5379;51.034;7.006;2022-09-29T07:03:25;5.73;;;4.33;;
10661;SDS011;5379;51.034;7.006;2022-09-29T07:05:53;4.80;;;4.40;;
10661;SDS011;5379;51.034;7.006;2022-09-29T07:08:20;4.47;;;4.07;;
10661;SDS011;5379;51.034;7.006;2022-09-29T07:10:47;4.67;;;4.20;;
10661;SDS011;5379;51.034;7.006;2022-09-29T07:13:14;5.43;;;4.93;;
10661;SDS011;5379;51.034;7.006;2022-09-29T07:15:41;4.70;;;4.30;;
10661;SDS011;5379;51.034;7.006;2022-09-29T07:18:09;5.17;;;4.63;;
10661;SDS011;5379;51.034;7.006;2022-09-29T07:20:36;6.40;;;4.93;;
10661;SDS011;5379;51.034;7.006;2022-09-29T07:23:05;4.80;;;4.40;;
10661;SDS011;5379;51.034;7.006;2022-09-29T07:25:33;6.53;;;5.23;;
10661;SDS011;5379;51.034;7.006;2022-09-29T07:28:00;8.73;;;5.17;;
10661;SDS011;5379;51.034;7.006;2022-09-29T07:30:27;6.33;;;5.10;;
10661;SDS011;5379;51.034;7.006;2022-09-29T07:32:55;6.90;;;5.40;;
10661;SDS011;5379;51.034;7.006;2022-09-29T07:35:22;5.80;;;5.20;;
10661;SDS011;5379;51.034;7.006;2022-09-29T07:37:50;5.23;;;4.83;;
10661;SDS011;5379;51.034;7.006;2022-09-29T07:40:19;5.70;;;5.20;;
10661;SDS011;5379;51.034;7.006;2022-09-29T07:42:46;6.77;;;5.23;;
10661;SDS011;5379;51.034;7.006;2022-09-29T07:45:16;4.80;;;4.30;;
10661;SDS011;5379;51.034;7.006;2022-09-29T07:47:43;4.93;;;4.53;;
10661;SDS011;5379;51.034;7.006;2022-09-29T07:50:11;4.47;;;4.17;;
10661;SDS011;5379;51.034;7.006;2022-09-29T07:52:38;7.87;;;3.93;;
10661;SDS011;5379;51.034;7.006;2022-09-29T07:55:05;3.63;;;3.43;;
10661;SDS011;5379;51.034;7.006;2022-09-29T07:57:34;4.67;;;3.67;;
10661;SDS011;5379;51.034;7.006;2022-09-29T08:00:02;5.03;;;4.13;;
10661;SDS011;5379;51.034;7.006;2022-09-29T08:02:29;5.77;;;4.37;;
10661;SDS011;5379;51.034;7.006;2022-09-29T08:04:57;4.23;;;3.93;;
10661;SDS011;5379;51.034;7.006;2022-09-29T08:07:24;4.13;;;3.83;;
10661;SDS011;5379;51.034;7.006;2022-09-29T08:09:50;4.57;;;4.17;;
10661;SDS011;5379;51.034;7.006;2022-09-29T08:12:18;4.80;;;4.40;;
10661;SDS011;5379;51.034;7.006;2022-09-29T08:14:46;4.30;;;3.87;;
10661;SDS011;5379;51.034;7.006;2022-09-29T08:17:13;5.20;;;3.57;;
10661;SDS011;5379;51.034;7.006;2022-09-29T08:19:40;4.67;;;4.00;;
10661;SDS011;5379;51.034;7.006;2022-09-29T08:22:07;3.90;;;3.70;;
10661;SDS011;5379;51.034;7.006;2022-09-29T08:24:34;4.80;;;3.97;;
10661;SDS011;5379;51.034;7.006;2022-09-29T08:27:04;4.80;;;4.30;;
10661;SDS011;5379;51.034;7.006;2022-09-29T08:29:32;6.73;;;4.30;;
10661;SDS011;5379;51.034;7.006;2022-09-29T08:32:00;5.57;;;4.27;;
10661;SDS011;5379;51.034;7.006;2022-09-29T08:34:27;8.20;;;4.27;;
10661;SDS011;5379;51.034;7.006;2022-09-29T08:36:54;4.53;;;3.83;;
10661;SDS011;5379;51.034;7.006;2022-09-29T08:39:21;5.13;;;3.70;;
10661;SDS011;5379;51.034;7.006;2022-09-29T08:41:50;4.57;;;4.17;;
10661;SDS011;5379;51.034;7.006;2022-09-29T08:44:21;5.03;;;4.53;;
10661;SDS011;5379;51.034;7.006;2022-09-29T08:46:54;5.93;;;4.50;;
10661;SDS011;5379;51.034;7.006;2022-09-29T08:49:27;4.93;;;4.13;;
10661;SDS011;5379;51.034;7.006;2022-09-29T08:52:00;5.37;;;4.43;;
10661;SDS011;5379;51.034;7.006;2022-09-29T08:54:35;4.87;;;4.47;;
10661;SDS011;5379;51.034;7.006;2022-09-29T08:57:08;4.50;;;3.97;;
10661;SDS011;5379;51.034;7.006;2022-09-29T08:59:41;4.37;;;3.97;;
10661;SDS011;5379;51.034;7.006;2022-09-29T09:02:23;4.63;;;3.87;;
10661;SDS011;5379;51.034;7.006;2022-09-29T09:07:57;4.57;;;3.73;;
10661;SDS011;5379;51.034;7.006;2022-09-29T09:10:35;7.10;;;4.63;;
10661;SDS011;5379;51.034;7.006;2022-09-29T09:16:14;5.13;;;3.80;;
10661;SDS011;5379;51.034;7.006;2022-09-29T09:19:06;9.13;;;3.87;;
10661;SDS011;5379;51.034;7.006;2022-09-29T09:21:56;3.00;;;2.80;;
10661;SDS011;5379;51.034;7.006;2022-09-29T09:24:39;5.00;;;4.00;;
10661;SDS011;5379;51.034;7.006;2022-09-29T09:27:14;4.00;;;3.63;;
10661;SDS011;5379;51.034;7.006;2022-09-29T09:29:46;6.70;;;3.90;;
10661;SDS011;5379;51.034;7.006;2022-09-29T09:32:16;4.37;;;3.67;;
10661;SDS011;5379;51.034;7.006;2022-09-29T09:34:48;4.10;;;3.80;;
10661;SDS011;5379;51.034;7.006;2022-09-29T09:37:24;9.13;;;4.30;;
10661;SDS011;5379;51.034;7.006;2022-09-29T09:39:57;3.73;;;3.47;;
10661;SDS011;5379;51.034;7.006;2022-09-29T09:42:29;3.90;;;3.60;;
10661;SDS011;5379;51.034;7.006;2022-09-29T09:44:59;6.17;;;4.30;;
10661;SDS011;5379;51.034;7.006;2022-09-29T09:47:32;5.33;;;4.10;;
10661;SDS011;5379;51.034;7.006;2022-09-29T09:50:10;4.60;;;3.90;;
10661;SDS011;5379;51.034;7.006;2022-09-29T09:52:43;4.10;;;3.70;;
10661;SDS011;5379;51.034;7.006;2022-09-29T09:55:14;3.97;;;3.30;;
10661;SDS011;5379;51.034;7.006;2022-09-29T09:57:45;4.17;;;3.77;;
10661;SDS011;5379;51.034;7.006;2022-09-29T10:00:22;4.27;;;3.87;;
10661;SDS011;5379;51.034;7.006;2022-09-29T10:02:55;3.70;;;3.47;;
10661;SDS011;5379;51.034;7.006;2022-09-29T10:05:23;4.10;;;3.70;;
10661;SDS011;5379;51.034;7.006;2022-09-29T10:07:56;6.83;;;4.00;;
10661;SDS011;5379;51.034;7.006;2022-09-29T10:10:24;4.80;;;3.23;;
10661;SDS011;5379;51.034;7.006;2022-09-29T10:12:55;8.00;;;3.47;;
10661;SDS011;5379;51.034;7.006;2022-09-29T10:15:27;4.60;;;3.30;;
10661;SDS011;5379;51.034;7.006;2022-09-29T10:18:01;3.30;;;3.00;;
10661;SDS011;5379;51.034;7.006;2022-09-29T10:20:32;4.63;;;3.17;;
10661;SDS011;5379;51.034;7.006;2022-09-29T10:26:03;6.37;;;3.40;;
10661;SDS011;5379;51.034;7.006;2022-09-29T10:28:41;2.93;;;2.73;;
10661;SDS011;5379;51.034;7.006;2022-09-29T10:31:18;3.13;;;2.83;;
10661;SDS011;5379;51.034;7.006;2022-09-29T10:33:48;4.80;;;3.60;;
10661;SDS011;5379;51.034;7.006;2022-09-29T10:36:17;3.77;;;3.20;;
10661;SDS011;5379;51.034;7.006;2022-09-29T10:38:46;5.00;;;3.20;;
10661;SDS011;5379;51.034;7.006;2022-09-29T10:41:17;9.60;;;3.60;;
10661;SDS011;5379;51.034;7.006;2022-09-29T10:43:45;4.83;;;4.33;;
10661;SDS011;5379;51.034;7.006;2022-09-29T10:49:14;4.47;;;3.80;;
10661;SDS011;5379;51.034;7.006;2022-09-29T10:51:47;4.90;;;4.17;;
10661;SDS011;5379;51.034;7.006;2022-09-29T10:54:18;4.27;;;3.93;;
10661;SDS011;5379;51.034;7.006;2022-09-29T10:56:51;8.23;;;3.93;;
10661;SDS011;5379;51.034;7.006;2022-09-29T10:59:19;6.20;;;3.53;;
10661;SDS011;5379;51.034;7.006;2022-09-29T11:01:49;5.63;;;3.40;;
10661;SDS011;5379;51.034;7.006;2022-09-29T11:04:21;3.47;;;3.10;;
10661;SDS011;5379;51.034;7.006;2022-09-29T11:06:50;3.97;;;3.27;;
10661;SDS011;5379;51.034;7.006;2022-09-29T11:09:25;4.37;;;3.90;;
10661;SDS011;5379;51.034;7.006;2022-09-29T11:12:02;6.83;;;3.03;;
10661;SDS011;5379;51.034;7.006;2022-09-29T11:14:30;3.60;;;3.30;;
10661;SDS011;5379;51.034;7.006;2022-09-29T11:17:18;2.90;;;2.43;;
10661;SDS011;5379;51.034;7.006;2022-09-29T11:19:46;4.20;;;2.80;;
10661;SDS011;5379;51.034;7.006;2022-09-29T11:22:18;5.17;;;3.00;;
10661;SDS011;5379;51.034;7.006;2022-09-29T11:28:30;6.70;;;3.13;;
10661;SDS011;5379;51.034;7.006;2022-09-29T11:31:13;3.47;;;3.17;;
10661;SDS011;5379;51.034;7.006;2022-09-29T11:33:53;5.73;;;2.77;;
10661;SDS011;5379;51.034;7.006;2022-09-29T11:36:32;2.73;;;2.53;;
10661;SDS011;5379;51.034;7.006;2022-09-29T11:41:59;2.03;;;1.93;;
10661;SDS011;5379;51.034;7.006;2022-09-29T11:44:42;2.43;;;2.13;;
10661;SDS011;5379;51.034;7.006;2022-09-29T11:47:26;3.00;;;1.70;;
10661;SDS011;5379;51.034;7.006;2022-09-29T11:50:22;2.57;;;2.10;;
10661;SDS011;5379;51.034;7.006;2022-09-29T11:53:00;2.37;;;2.17;;
10661;SDS011;5379;51.034;7.006;2022-09-29T11:55:47;2.80;;;2.07;;
10661;SDS011;5379;51.034;7.006;2022-09-29T11:58:25;1.80;;;1.70;;
10661;SDS011;5379;51.034;7.006;2022-09-29T12:01:20;3.17;;;1.70;;
10661;SDS011;5379;51.034;7.006;2022-09-29T12:03:59;2.03;;;1.70;;
10661;SDS011;5379;51.034;7.006;2022-09-29T12:06:41;1.90;;;1.60;;
10661;SDS011;5379;51.034;7.006;2022-09-29T12:09:41;1.43;;;1.33;;
10661;SDS011;5379;51.034;7.006;2022-09-29T12:12:22;2.83;;;1.60;;
10661;SDS011;5379;51.034;7.006;2022-09-29T12:15:01;2.13;;;1.77;;
10661;SDS011;5379;51.034;7.006;2022-09-29T12:17:42;1.73;;;1.57;;
10661;SDS011;5379;51.034;7.006;2022-09-29T12:20:15;2.20;;;1.87;;
10661;SDS011;5379;51.034;7.006;2022-09-29T12:22:45;1.83;;;1.73;;
10661;SDS011;5379;51.034;7.006;2022-09-29T12:25:15;5.03;;;1.80;;
10661;SDS011;5379;51.034;7.006;2022-09-29T12:27:45;4.90;;;1.97;;
10661;SDS011;5379;51.034;7.006;2022-09-29T12:30:16;2.27;;;1.87;;
10661;SDS011;5379;51.034;7.006;2022-09-29T12:32:49;3.10;;;2.47;;
10661;SDS011;5379;51.034;7.006;2022-09-29T12:35:22;2.57;;;2.20;;
10661;SDS011;5379;51.034;7.006;2022-09-29T12:37:58;2.80;;;2.20;;
10661;SDS011;5379;51.034;7.006;2022-09-29T12:40:32;4.63;;;2.00;;
10661;SDS011;5379;51.034;7.006;2022-09-29T12:43:04;1.43;;;1.33;;
10661;SDS011;5379;51.034;7.006;2022-09-29T12:45:41;2.03;;;1.50;;
10661;SDS011;5379;51.034;7.006;2022-09-29T12:48:20;2.40;;;1.77;;
10661;SDS011;5379;51.034;7.006;2022-09-29T12:51:07;2.00;;;1.70;;
10661;SDS011;5379;51.034;7.006;2022-09-29T12:53:38;2.33;;;1.57;;
10661;SDS011;5379;51.034;7.006;2022-09-29T12:56:13;4.17;;;1.30;;
10661;SDS011;5379;51.034;7.006;2022-09-29T12:58:46;1.27;;;1.23;;
10661;SDS011;5379;51.034;7.006;2022-09-29T13:01:19;3.60;;;1.87;;
10661;SDS011;5379;51.034;7.006;2022-09-29T13:04:03;1.60;;;1.50;;
10661;SDS011;5379;51.034;7.006;2022-09-29T13:13:21;1.77;;;1.67;;
10661;SDS011;5379;51.034;7.006;2022-09-29T13:16:02;1.50;;;1.50;;
10661;SDS011;5379;51.034;7.006;2022-09-29T13:18:46;2.13;;;1.87;;
10661;SDS011;5379;51.034;7.006;2022-09-29T13:21:27;2.37;;;2.17;;
10661;SDS011;5379;51.034;7.006;2022-09-29T13:24:11;2.50;;;2.10;;
10661;SDS011;5379;51.034;7.006;2022-09-29T13:27:07;7.70;;;2.40;;
10661;SDS011;5379;51.034;7.006;2022-09-29T13:29:43;3.43;;;2.03;;
10661;SDS011;5379;51.034;7.006;2022-09-29T13:32:13;2.30;;;2.10;;
10661;SDS011;5379;51.034;7.006;2022-09-29T13:34:45;5.47;;;2.37;;
10661;SDS011;5379;51.034;7.006;2022-09-29T13:37:17;2.63;;;2.43;;
10661;SDS011;5379;51.034;7.006;2022-09-29T13:39:50;1.93;;;1.70;;
10661;SDS011;5379;51.034;7.006;2022-09-29T13:42:26;2.90;;;2.00;;
10661;SDS011;5379;51.034;7.006;2022-09-29T13:56:46;1.93;;;1.53;;
10661;SDS011;5379;51.034;7.006;2022-09-29T13:59:16;1.90;;;1.60;;
10661;SDS011;5379;51.034;7.006;2022-09-29T14:01:49;1.80;;;1.70;;
10661;SDS011;5379;51.034;7.006;2022-09-29T14:04:33;1.80;;;1.53;;
10661;SDS011;5379;51.034;7.006;2022-09-29T14:07:09;2.10;;;1.67;;
10661;SDS011;5379;51.034;7.006;2022-09-29T14:09:40;6.50;;;2.53;;
10661;SDS011;5379;51.034;7.006;2022-09-29T14:12:15;2.23;;;1.60;;
10661;SDS011;5379;51.034;7.006;2022-09-29T14:14:49;1.60;;;1.50;;
10661;SDS011;5379;51.034;7.006;2022-09-29T14:17:20;1.73;;;1.40;;
10661;SDS011;5379;51.034;7.006;2022-09-29T14:19:52;2.83;;;1.93;;
10661;SDS011;5379;51.034;7.006;2022-09-29T14:28:18;1.80;;;1.70;;
10661;SDS011;5379;51.034;7.006;2022-09-29T14:31:00;1.90;;;1.80;;
10661;SDS011;5379;51.034;7.006;2022-09-29T14:33:29;1.50;;;1.40;;
10661;SDS011;5379;51.034;7.006;2022-09-29T14:36:04;2.00;;;1.90;;
10661;SDS011;5379;51.034;7.006;2022-09-29T14:38:36;11.10;;;2.83;;
10661;SDS011;5379;51.034;7.006;2022-09-29T14:41:26;1.40;;;1.40;;
10661;SDS011;5379;51.034;7.006;2022-09-29T14:43:58;4.20;;;1.80;;
10661;SDS011;5379;51.034;7.006;2022-09-29T14:46:45;1.77;;;1.67;;
10661;SDS011;5379;51.034;7.006;2022-09-29T14:49:56;1.60;;;1.50;;
10661;SDS011;5379;51.034;7.006;2022-09-29T14:52:50;2.23;;;2.03;;
10661;SDS011;5379;51.034;7.006;2022-09-29T14:55:29;2.30;;;2.10;;
10661;SDS011;5379;51.034;7.006;2022-09-29T14:58:13;1.83;;;1.73;;
10661;SDS011;5379;51.034;7.006;2022-09-29T15:00:54;1.97;;;1.83;;
10661;SDS011;5379;51.034;7.006;2022-09-29T15:03:28;1.90;;;1.80;;
10661;SDS011;5379;51.034;7.006;2022-09-29T15:06:04;2.47;;;2.27;;
10661;SDS011;5379;51.034;7.006;2022-09-29T15:08:35;3.70;;;2.90;;
10661;SDS011;5379;51.034;7.006;2022-09-29T15:13:58;2.03;;;1.93;;
10661;SDS011;5379;51.034;7.006;2022-09-29T15:16:28;2.97;;;2.77;;
10661;SDS011;5379;51.034;7.006;2022-09-29T15:19:20;2.97;;;2.23;;
10661;SDS011;5379;51.034;7.006;2022-09-29T15:22:00;3.47;;;2.33;;
10661;SDS011;5379;51.034;7.006;2022-09-29T15:24:48;4.63;;;2.87;;
10661;SDS011;5379;51.034;7.006;2022-09-29T15:27:27;4.30;;;3.80;;
10661;SDS011;5379;51.034;7.006;2022-09-29T15:29:58;2.77;;;2.20;;
10661;SDS011;5379;51.034;7.006;2022-09-29T15:32:26;1.87;;;1.77;;
10661;SDS011;5379;51.034;7.006;2022-09-29T15:34:59;2.10;;;1.90;;
10661;SDS011;5379;51.034;7.006;2022-09-29T15:37:29;3.97;;;2.50;;
10661;SDS011;5379;51.034;7.006;2022-09-29T15:40:21;1.97;;;1.73;;
10661;SDS011;5379;51.034;7.006;2022-09-29T15:42:50;2.60;;;2.40;;
10661;SDS011;5379;51.034;7.006;2022-09-29T15:45:21;3.37;;;2.40;;
10661;SDS011;5379;51.034;7.006;2022-09-29T15:47:57;2.40;;;2.07;;
10661;SDS011;5379;51.034;7.006;2022-09-29T15:50:26;1.70;;;1.60;;
10661;SDS011;5379;51.034;7.006;2022-09-29T15:52:56;2.00;;;1.57;;
10661;SDS011;5379;51.034;7.006;2022-09-29T15:55:27;2.00;;;1.90;;
10661;SDS011;5379;51.034;7.006;2022-09-29T15:57:56;2.50;;;1.97;;
10661;SDS011;5379;51.034;7.006;2022-09-29T16:03:25;1.87;;;1.77;;
10661;SDS011;5379;51.034;7.006;2022-09-29T16:06:01;2.30;;;1.77;;
10661;SDS011;5379;51.034;7.006;2022-09-29T16:08:32;2.77;;;1.93;;
10661;SDS011;5379;51.034;7.006;2022-09-29T16:11:04;1.80;;;1.70;;
10661;SDS011;5379;51.034;7.006;2022-09-29T16:13:34;2.63;;;1.97;;
10661;SDS011;5379;51.034;7.006;2022-09-29T16:16:06;1.50;;;1.40;;
10661;SDS011;5379;51.034;7.006;2022-09-29T16:18:38;1.73;;;1.63;;
10661;SDS011;5379;51.034;7.006;2022-09-29T16:21:08;2.60;;;1.80;;
10661;SDS011;5379;51.034;7.006;2022-09-29T16:23:40;1.90;;;1.80;;